<?xml version="1.0" encoding="UTF-8" standalone="no" ?>
<gpx xmlns="http://www.topografix.com/GPX/1/1" xmlns:xsi="http://www.w3.org/2001/XMLSchema-instance" xsi:schemaLocation="http://www.topografix.com/GPX/1/1 http://www.topografix.com/GPX/1/1/gpx.xsd" version="1.1" creator="VisuGPX - https://www.visugpx.com">
  <metadata>
    <name>circuits du Buchholz 4</name>
  </metadata>
  <trk>
    <name><![CDATA[Circuit Schierener Miehl - anneau vert]]></name>
    <extensions>
      <line xmlns="http://www.topografix.com/GPX/gpx_style/0/2">
        <color>388038</color>
        <opacity>0.3</opacity>
        <width>3</width>
      </line>
    </extensions>
    <trkseg>
      <trkpt lat="49.08449" lon="7.06665">
        <ele>217.38297</ele>
        <time>2021-09-08T13:16:17.000Z</time>
      </trkpt>
      <trkpt lat="49.08475" lon="7.0663">
        <ele>216.5</ele>
      </trkpt>
      <trkpt lat="49.08503" lon="7.06591">
        <ele>218.6</ele>
      </trkpt>
      <trkpt lat="49.08509" lon="7.06598">
        <ele>219.1</ele>
      </trkpt>
      <trkpt lat="49.08525" lon="7.06622">
        <ele>219.3</ele>
      </trkpt>
      <trkpt lat="49.08525" lon="7.06623">
        <ele>219.3</ele>
      </trkpt>
      <trkpt lat="49.08526" lon="7.06623">
        <ele>219.3</ele>
      </trkpt>
      <trkpt lat="49.08575" lon="7.06629">
        <ele>225.1</ele>
        <time>2021-09-08T13:17:15.000Z</time>
      </trkpt>
      <trkpt lat="49.08643" lon="7.0662">
        <ele>229.4</ele>
      </trkpt>
      <trkpt lat="49.08662" lon="7.06613">
        <ele>228.2</ele>
      </trkpt>
      <trkpt lat="49.08679" lon="7.06605">
        <ele>226</ele>
        <time>2021-09-08T13:17:27.000Z</time>
      </trkpt>
      <trkpt lat="49.08769" lon="7.06562">
        <ele>217</ele>
        <time>2021-09-08T13:17:36.000Z</time>
      </trkpt>
      <trkpt lat="49.08813" lon="7.06581">
        <ele>219.8</ele>
      </trkpt>
      <trkpt lat="49.08815" lon="7.06553">
        <ele>220</ele>
      </trkpt>
      <trkpt lat="49.0881" lon="7.06536">
        <ele>218.7</ele>
      </trkpt>
      <trkpt lat="49.08811" lon="7.06524">
        <ele>218.5</ele>
      </trkpt>
      <trkpt lat="49.08814" lon="7.06505">
        <ele>218.1</ele>
        <time>2021-09-08T13:18:12.000Z</time>
      </trkpt>
      <trkpt lat="49.08828" lon="7.06488">
        <ele>219.1</ele>
      </trkpt>
      <trkpt lat="49.0884" lon="7.06477">
        <ele>219.7</ele>
        <time>2021-09-08T13:19:00.000Z</time>
      </trkpt>
      <trkpt lat="49.08851" lon="7.06472">
        <ele>220.3</ele>
        <time>2021-09-08T13:19:14.000Z</time>
      </trkpt>
      <trkpt lat="49.08857" lon="7.06469">
        <ele>220.6</ele>
        <time>2021-09-08T13:19:22.000Z</time>
      </trkpt>
      <trkpt lat="49.08879" lon="7.06465">
        <ele>222.2</ele>
      </trkpt>
      <trkpt lat="49.08896" lon="7.06461">
        <ele>223.7</ele>
        <time>2021-09-08T13:20:18.000Z</time>
      </trkpt>
      <trkpt lat="49.08935" lon="7.06449">
        <ele>228.6</ele>
        <time>2021-09-08T13:20:18.000Z</time>
      </trkpt>
      <trkpt lat="49.08955" lon="7.06441">
        <ele>231.1</ele>
      </trkpt>
      <trkpt lat="49.09007" lon="7.06402">
        <ele>237.2</ele>
        <time>2021-09-08T13:20:18.000Z</time>
      </trkpt>
      <trkpt lat="49.09034" lon="7.064">
        <ele>239.8</ele>
        <time>2021-09-08T13:20:36.000Z</time>
      </trkpt>
      <trkpt lat="49.09058" lon="7.06395">
        <ele>241.3</ele>
        <time>2021-09-08T13:20:59.000Z</time>
      </trkpt>
      <trkpt lat="49.09083" lon="7.06393">
        <ele>242.3</ele>
        <time>2021-09-08T13:21:22.000Z</time>
      </trkpt>
      <trkpt lat="49.09114" lon="7.06391">
        <ele>242</ele>
        <time>2021-09-08T13:21:52.000Z</time>
      </trkpt>
      <trkpt lat="49.0918" lon="7.06383">
        <ele>240.6</ele>
      </trkpt>
      <trkpt lat="49.09172" lon="7.06382">
        <ele>242.78753</ele>
        <time>2021-09-08T13:22:37.000Z</time>
      </trkpt>
      <trkpt lat="49.09195" lon="7.06381">
        <ele>243.06383</ele>
        <time>2021-09-08T13:23:02.000Z</time>
      </trkpt>
      <trkpt lat="49.09205" lon="7.06387">
        <ele>240.9</ele>
      </trkpt>
      <trkpt lat="49.09213" lon="7.06397">
        <ele>241.3</ele>
        <time>2021-09-08T13:23:13.000Z</time>
      </trkpt>
      <trkpt lat="49.09225" lon="7.06411">
        <ele>241.9</ele>
      </trkpt>
      <trkpt lat="49.09228" lon="7.0642">
        <ele>242.3</ele>
        <time>2021-09-08T13:23:42.000Z</time>
      </trkpt>
      <trkpt lat="49.09234" lon="7.06433">
        <ele>243</ele>
        <time>2021-09-08T13:24:03.000Z</time>
      </trkpt>
      <trkpt lat="49.09251" lon="7.06434">
        <ele>243.7</ele>
      </trkpt>
      <trkpt lat="49.09286" lon="7.06462">
        <ele>245.4</ele>
      </trkpt>
      <trkpt lat="49.09318" lon="7.06508">
        <ele>247.4</ele>
        <time>2021-09-08T13:25:25.000Z</time>
      </trkpt>
      <trkpt lat="49.09324" lon="7.06516">
        <ele>247.7</ele>
      </trkpt>
      <trkpt lat="49.09331" lon="7.06521">
        <ele>247.9</ele>
        <time>2021-09-08T13:25:42.000Z</time>
      </trkpt>
      <trkpt lat="49.09337" lon="7.06519">
        <ele>248.3</ele>
      </trkpt>
      <trkpt lat="49.09343" lon="7.06516">
        <ele>248.7</ele>
      </trkpt>
      <trkpt lat="49.09347" lon="7.06494">
        <ele>248.9</ele>
        <time>2021-09-08T13:25:47.000Z</time>
      </trkpt>
      <trkpt lat="49.09352" lon="7.06471">
        <ele>248.7</ele>
        <time>2021-09-08T13:26:05.000Z</time>
      </trkpt>
      <trkpt lat="49.09353" lon="7.06458">
        <ele>248.7</ele>
      </trkpt>
      <trkpt lat="49.09366" lon="7.06463">
        <ele>249.2</ele>
        <time>2021-09-08T13:26:39.000Z</time>
      </trkpt>
      <trkpt lat="49.09442" lon="7.0649">
        <ele>252.9</ele>
      </trkpt>
      <trkpt lat="49.09459" lon="7.06495">
        <ele>252.5</ele>
      </trkpt>
      <trkpt lat="49.09535" lon="7.06541">
        <ele>244.5</ele>
      </trkpt>
      <trkpt lat="49.09558" lon="7.06507">
        <ele>241.7</ele>
        <time>2021-09-08T13:30:49.000Z</time>
      </trkpt>
      <trkpt lat="49.09572" lon="7.06487">
        <ele>240</ele>
      </trkpt>
      <trkpt lat="49.0959" lon="7.06498">
        <ele>237.4</ele>
        <time>2021-09-08T13:31:34.000Z</time>
      </trkpt>
      <trkpt lat="49.09604" lon="7.06534">
        <ele>235.7</ele>
      </trkpt>
      <trkpt lat="49.09609" lon="7.06547">
        <ele>235.2</ele>
      </trkpt>
      <trkpt lat="49.09613" lon="7.06557">
        <ele>235</ele>
        <time>2021-09-08T13:32:22.000Z</time>
      </trkpt>
      <trkpt lat="49.09654" lon="7.06622">
        <ele>235.6</ele>
        <time>2021-09-08T13:32:56.000Z</time>
      </trkpt>
      <trkpt lat="49.09675" lon="7.06694">
        <ele>238.9</ele>
        <time>2021-09-08T13:34:08.000Z</time>
      </trkpt>
      <trkpt lat="49.09713" lon="7.06785">
        <ele>241.9</ele>
        <time>2021-09-08T13:35:10.000Z</time>
      </trkpt>
      <trkpt lat="49.09748" lon="7.06851">
        <ele>244.8</ele>
      </trkpt>
      <trkpt lat="49.09751" lon="7.06859">
        <ele>241.80081</ele>
        <time>2021-09-08T13:37:40.000Z</time>
      </trkpt>
      <trkpt lat="49.09745" lon="7.06866">
        <ele>244.3</ele>
      </trkpt>
      <trkpt lat="49.0973" lon="7.06882">
        <ele>242.6</ele>
        <time>2021-09-08T13:38:08.000Z</time>
      </trkpt>
      <trkpt lat="49.0972" lon="7.06895">
        <ele>241.4</ele>
        <time>2021-09-08T13:38:21.000Z</time>
      </trkpt>
      <trkpt lat="49.09709" lon="7.06916">
        <ele>235.90751</ele>
        <time>2021-09-08T13:38:35.000Z</time>
      </trkpt>
      <trkpt lat="49.09704" lon="7.06925">
        <ele>235.19079</ele>
        <time>2021-09-08T13:38:44.000Z</time>
      </trkpt>
      <trkpt lat="49.09694" lon="7.06946">
        <ele>236.8</ele>
        <time>2021-09-08T13:38:56.000Z</time>
      </trkpt>
      <trkpt lat="49.09679" lon="7.06989">
        <ele>232.40857</ele>
        <time>2021-09-08T13:39:22.000Z</time>
      </trkpt>
      <trkpt lat="49.09676" lon="7.07001">
        <ele>232.3</ele>
        <time>2021-09-08T13:39:30.000Z</time>
      </trkpt>
      <trkpt lat="49.0966" lon="7.07046">
        <ele>230.1</ele>
        <time>2021-09-08T13:39:43.000Z</time>
      </trkpt>
      <trkpt lat="49.09664" lon="7.07052">
        <ele>230.96363</ele>
        <time>2021-09-08T13:41:04.000Z</time>
      </trkpt>
      <trkpt lat="49.09671" lon="7.07057">
        <ele>231.92704</ele>
        <time>2021-09-08T13:41:33.000Z</time>
      </trkpt>
      <trkpt lat="49.09686" lon="7.07069">
        <ele>233.72233</ele>
        <time>2021-09-08T13:41:46.000Z</time>
      </trkpt>
      <trkpt lat="49.09703" lon="7.07074">
        <ele>235.50821</ele>
        <time>2021-09-08T13:42:13.000Z</time>
      </trkpt>
      <trkpt lat="49.09718" lon="7.07092">
        <ele>237.02823</ele>
        <time>2021-09-08T13:42:59.000Z</time>
      </trkpt>
      <trkpt lat="49.09725" lon="7.07101">
        <ele>237.6496</ele>
        <time>2021-09-08T13:43:09.000Z</time>
      </trkpt>
      <trkpt lat="49.09734" lon="7.07116">
        <ele>238.52866</ele>
        <time>2021-09-08T13:43:27.000Z</time>
      </trkpt>
      <trkpt lat="49.09755" lon="7.0714">
        <ele>242.2</ele>
        <time>2021-09-08T13:44:15.000Z</time>
      </trkpt>
      <trkpt lat="49.09772" lon="7.0713">
        <ele>241.97318</ele>
        <time>2021-09-08T13:45:20.000Z</time>
      </trkpt>
      <trkpt lat="49.09784" lon="7.07172">
        <ele>243.19028</ele>
        <time>2021-09-08T13:45:20.000Z</time>
      </trkpt>
      <trkpt lat="49.09787" lon="7.07183">
        <ele>243</ele>
      </trkpt>
      <trkpt lat="49.09784" lon="7.07173">
        <ele>243</ele>
      </trkpt>
      <trkpt lat="49.09772" lon="7.0713">
        <ele>242.7</ele>
      </trkpt>
      <trkpt lat="49.09751" lon="7.07142">
        <ele>242</ele>
      </trkpt>
      <trkpt lat="49.09742" lon="7.07145">
        <ele>240.8</ele>
      </trkpt>
      <trkpt lat="49.0973" lon="7.07151">
        <ele>239.2</ele>
      </trkpt>
      <trkpt lat="49.09725" lon="7.07154">
        <ele>238.4</ele>
      </trkpt>
      <trkpt lat="49.0972" lon="7.07158">
        <ele>237.6</ele>
      </trkpt>
      <trkpt lat="49.09708" lon="7.07167">
        <ele>236.55449</ele>
      </trkpt>
      <trkpt lat="49.09699" lon="7.07165">
        <ele>235.34367</ele>
      </trkpt>
      <trkpt lat="49.0969" lon="7.07162">
        <ele>234.12186</ele>
      </trkpt>
      <trkpt lat="49.09675" lon="7.0717">
        <ele>232.03446</ele>
      </trkpt>
      <trkpt lat="49.09661" lon="7.07178">
        <ele>230.05837</ele>
      </trkpt>
      <trkpt lat="49.09649" lon="7.07184">
        <ele>228.42772</ele>
      </trkpt>
      <trkpt lat="49.09639" lon="7.07192">
        <ele>227.09284</ele>
      </trkpt>
      <trkpt lat="49.09632" lon="7.07197">
        <ele>226.21801</ele>
      </trkpt>
      <trkpt lat="49.09625" lon="7.07201">
        <ele>225.3478</ele>
      </trkpt>
      <trkpt lat="49.09615" lon="7.07209">
        <ele>224.11147</ele>
      </trkpt>
      <trkpt lat="49.09603" lon="7.0722">
        <ele>222.61195</ele>
      </trkpt>
      <trkpt lat="49.09589" lon="7.07235">
        <ele>219.6</ele>
      </trkpt>
      <trkpt lat="49.09587" lon="7.07249">
        <ele>218.5</ele>
      </trkpt>
      <trkpt lat="49.09584" lon="7.07263">
        <ele>218.96684</ele>
      </trkpt>
      <trkpt lat="49.09582" lon="7.07274">
        <ele>217.1</ele>
      </trkpt>
      <trkpt lat="49.09575" lon="7.07311">
        <ele>214.9</ele>
      </trkpt>
      <trkpt lat="49.09568" lon="7.07363">
        <ele>212.6</ele>
      </trkpt>
      <trkpt lat="49.09567" lon="7.07365">
        <ele>212.5</ele>
      </trkpt>
      <trkpt lat="49.0957" lon="7.07417">
        <ele>210.5</ele>
      </trkpt>
      <trkpt lat="49.09556" lon="7.07404">
        <ele>208.5</ele>
      </trkpt>
      <trkpt lat="49.0954" lon="7.0739">
        <ele>208.9</ele>
      </trkpt>
      <trkpt lat="49.09523" lon="7.07379">
        <ele>210</ele>
      </trkpt>
      <trkpt lat="49.09461" lon="7.07342">
        <ele>214.4</ele>
      </trkpt>
      <trkpt lat="49.0938" lon="7.07293">
        <ele>214.1</ele>
      </trkpt>
      <trkpt lat="49.09329" lon="7.07263">
        <ele>212.1</ele>
      </trkpt>
      <trkpt lat="49.09209" lon="7.072">
        <ele>217.5</ele>
      </trkpt>
      <trkpt lat="49.0915" lon="7.07165">
        <ele>218.1</ele>
      </trkpt>
      <trkpt lat="49.09097" lon="7.07134">
        <ele>222.1</ele>
      </trkpt>
      <trkpt lat="49.09026" lon="7.07096">
        <ele>225.1</ele>
      </trkpt>
      <trkpt lat="49.08996" lon="7.07081">
        <ele>226.1</ele>
      </trkpt>
      <trkpt lat="49.08976" lon="7.07068">
        <ele>226.6</ele>
      </trkpt>
      <trkpt lat="49.0894" lon="7.07028">
        <ele>226.9</ele>
      </trkpt>
      <trkpt lat="49.08876" lon="7.0695">
        <ele>223.5</ele>
      </trkpt>
      <trkpt lat="49.08857" lon="7.06928">
        <ele>221.4</ele>
      </trkpt>
      <trkpt lat="49.08829" lon="7.06893">
        <ele>218</ele>
      </trkpt>
      <trkpt lat="49.08824" lon="7.06888">
        <ele>217.3</ele>
      </trkpt>
      <trkpt lat="49.08817" lon="7.0688">
        <ele>216.5</ele>
      </trkpt>
      <trkpt lat="49.088" lon="7.06869">
        <ele>215</ele>
      </trkpt>
      <trkpt lat="49.08789" lon="7.06874">
        <ele>214.1</ele>
      </trkpt>
      <trkpt lat="49.0877" lon="7.06888">
        <ele>214.3</ele>
      </trkpt>
      <trkpt lat="49.08763" lon="7.06894">
        <ele>214.4</ele>
      </trkpt>
      <trkpt lat="49.08737" lon="7.06906">
        <ele>216.1</ele>
      </trkpt>
      <trkpt lat="49.08718" lon="7.06908">
        <ele>217.2</ele>
      </trkpt>
      <trkpt lat="49.08698" lon="7.06908">
        <ele>217</ele>
      </trkpt>
      <trkpt lat="49.08695" lon="7.06906">
        <ele>213.26226</ele>
      </trkpt>
      <trkpt lat="49.0868" lon="7.0689">
        <ele>217.9</ele>
      </trkpt>
      <trkpt lat="49.08667" lon="7.06872">
        <ele>218.9</ele>
      </trkpt>
      <trkpt lat="49.08618" lon="7.06785">
        <ele>220.5</ele>
      </trkpt>
      <trkpt lat="49.08595" lon="7.0674">
        <ele>220.6</ele>
      </trkpt>
      <trkpt lat="49.08568" lon="7.06698">
        <ele>219.6</ele>
      </trkpt>
      <trkpt lat="49.08559" lon="7.06682">
        <ele>219</ele>
      </trkpt>
      <trkpt lat="49.08541" lon="7.06649">
        <ele>219.3</ele>
      </trkpt>
      <trkpt lat="49.08531" lon="7.06629">
        <ele>219.5</ele>
      </trkpt>
      <trkpt lat="49.08525" lon="7.06622">
        <ele>219.3</ele>
      </trkpt>
      <trkpt lat="49.08514" lon="7.06606">
        <ele>219</ele>
      </trkpt>
      <trkpt lat="49.08512" lon="7.06602">
        <ele>219</ele>
      </trkpt>
      <trkpt lat="49.08509" lon="7.06598">
        <ele>219.1</ele>
      </trkpt>
      <trkpt lat="49.08503" lon="7.06591">
        <ele>218.6</ele>
      </trkpt>
      <trkpt lat="49.08502" lon="7.06592">
        <ele>218.4</ele>
      </trkpt>
      <trkpt lat="49.0849" lon="7.06608">
        <ele>216.2</ele>
      </trkpt>
      <trkpt lat="49.0848" lon="7.06623">
        <ele>216.1</ele>
      </trkpt>
      <trkpt lat="49.08461" lon="7.06649">
        <ele>217.04259</ele>
      </trkpt>
      <trkpt lat="49.08456" lon="7.06656">
        <ele>217.2</ele>
        <extensions>
          <visugpx:TrkExtension xmlns:visugpx="https://www.visugpx.com/editgpx/">
            <visugpx:node>1</visugpx:node>
            </visugpx:TrkExtension>
        </extensions>
      </trkpt>
    </trkseg>
  </trk>
</gpx>